createdAt,value
2017-12-15T00:02:20.815Z,3.54
2017-12-15T00:04:51.329Z,3.54
2017-12-15T00:07:19.044Z,3.59
2017-12-15T00:09:47.043Z,3.57
2017-12-15T00:12:14.703Z,3.49
2017-12-15T00:14:42.280Z,3.50
2017-12-15T00:17:09.853Z,3.53
2017-12-15T00:19:37.474Z,3.53
2017-12-15T00:22:05.053Z,3.50
2017-12-15T00:24:32.669Z,3.58
2017-12-15T00:27:00.578Z,3.56
2017-12-15T00:29:28.171Z,3.41
2017-12-15T00:31:55.794Z,3.43
2017-12-15T00:34:23.359Z,3.38
2017-12-15T00:36:51.531Z,3.38
2017-12-15T00:39:19.096Z,3.44
2017-12-15T00:41:46.809Z,3.46
2017-12-15T00:44:14.445Z,3.50
2017-12-15T00:46:42.041Z,3.51
2017-12-15T00:49:09.943Z,3.52
2017-12-15T00:51:37.518Z,3.56
2017-12-15T00:54:05.107Z,3.63
2017-12-15T00:56:32.737Z,3.60
2017-12-15T00:59:00.315Z,3.65
2017-12-15T01:01:27.944Z,3.50
2017-12-15T01:03:55.520Z,3.47
2017-12-15T01:06:23.395Z,3.51
2017-12-15T01:08:51.050Z,3.56
2017-12-15T01:11:19.011Z,3.56
2017-12-15T01:13:46.646Z,3.48
2017-12-15T01:16:14.232Z,3.37
2017-12-15T01:18:41.820Z,3.40
2017-12-15T01:21:09.448Z,3.28
2017-12-15T01:23:37.333Z,3.23
2017-12-15T01:26:05.300Z,3.19
2017-12-15T01:28:32.875Z,3.03
2017-12-15T01:31:00.529Z,3.00
2017-12-15T01:33:28.192Z,3.00
2017-12-15T01:35:55.811Z,2.95
2017-12-15T01:38:23.444Z,2.95
2017-12-15T01:40:51.027Z,2.90
2017-12-15T01:43:18.610Z,2.91
2017-12-15T01:45:46.228Z,2.99
2017-12-15T01:48:13.830Z,3.04
2017-12-15T01:50:41.450Z,3.08
2017-12-15T01:53:09.012Z,3.06
2017-12-15T01:55:37.053Z,3.04
2017-12-15T01:58:04.922Z,3.03
2017-12-15T02:00:32.546Z,2.95
2017-12-15T02:03:00.173Z,2.97
2017-12-15T02:05:27.771Z,2.96
2017-12-15T02:07:55.349Z,2.97
2017-12-15T02:10:22.989Z,2.97
2017-12-15T02:12:50.658Z,2.98
2017-12-15T02:15:18.313Z,2.96
2017-12-15T02:17:45.909Z,2.88
2017-12-15T02:20:13.538Z,2.78
2017-12-15T02:22:41.163Z,2.78
2017-12-15T02:25:08.755Z,2.70
2017-12-15T02:27:36.395Z,2.68
2017-12-15T02:30:03.983Z,2.65
2017-12-15T02:32:31.895Z,2.68
2017-12-15T02:34:59.500Z,2.71
2017-12-15T02:37:27.090Z,2.78
2017-12-15T02:39:54.709Z,2.81
2017-12-15T02:42:22.557Z,2.77
2017-12-15T02:44:50.183Z,2.85
2017-12-15T02:47:17.767Z,2.80
2017-12-15T02:49:45.345Z,2.83
2017-12-15T02:52:13.031Z,2.91
2017-12-15T02:54:40.604Z,3.02
2017-12-15T02:57:08.227Z,3.02
2017-12-15T02:59:35.811Z,3.01
2017-12-15T03:02:03.388Z,3.01
2017-12-15T03:04:30.996Z,3.03
2017-12-15T03:06:58.568Z,2.96
2017-12-15T03:09:26.545Z,2.89
2017-12-15T03:11:54.119Z,2.88
2017-12-15T03:14:21.713Z,2.80
2017-12-15T03:16:49.361Z,2.65
2017-12-15T03:19:16.931Z,2.57
2017-12-15T03:21:44.566Z,2.45
2017-12-15T03:24:13.036Z,2.54
2017-12-15T03:26:40.621Z,2.56
2017-12-15T03:29:08.224Z,2.61
2017-12-15T03:31:35.803Z,2.62
2017-12-15T03:34:03.449Z,2.69
2017-12-15T03:36:31.072Z,2.70
2017-12-15T03:38:58.644Z,2.73
2017-12-15T03:41:26.248Z,2.65
2017-12-15T03:43:53.832Z,2.74
2017-12-15T03:46:21.448Z,2.75
2017-12-15T03:48:49.046Z,2.76
2017-12-15T03:51:16.628Z,2.74
2017-12-15T03:53:44.232Z,2.67
2017-12-15T03:56:11.803Z,2.63
2017-12-15T03:58:39.447Z,2.66
2017-12-15T04:01:07.057Z,2.63
2017-12-15T04:03:34.632Z,2.68
2017-12-15T04:06:02.482Z,2.68
2017-12-15T04:08:30.060Z,2.66
2017-12-15T04:10:57.721Z,2.72
2017-12-15T04:13:25.300Z,2.79
2017-12-15T04:15:52.892Z,2.69
2017-12-15T04:18:20.505Z,2.71
2017-12-15T04:20:48.080Z,2.73
2017-12-15T04:23:15.706Z,2.78
2017-12-15T04:25:43.369Z,2.82
2017-12-15T04:28:10.948Z,2.87
2017-12-15T04:30:38.713Z,2.87
2017-12-15T04:33:06.308Z,2.82
2017-12-15T04:35:34.240Z,2.92
2017-12-15T04:38:01.819Z,2.88
2017-12-15T04:40:29.392Z,2.87
2017-12-15T04:42:57.022Z,2.89
2017-12-15T04:45:24.598Z,2.93
2017-12-15T04:47:52.208Z,2.87
2017-12-15T04:50:20.111Z,2.86
2017-12-15T04:52:47.688Z,2.86
2017-12-15T04:55:15.307Z,2.91
2017-12-15T04:57:42.876Z,2.96
2017-12-15T05:00:10.484Z,2.91
2017-12-15T05:02:38.052Z,2.92
2017-12-15T05:05:05.615Z,2.97
2017-12-15T05:07:33.216Z,2.91
2017-12-15T05:10:00.793Z,2.94
2017-12-15T05:12:28.416Z,2.99
2017-12-15T05:14:56.332Z,2.95
2017-12-15T05:17:23.944Z,2.96
2017-12-15T05:19:51.544Z,2.99
2017-12-15T05:22:19.117Z,3.07
2017-12-15T05:24:46.687Z,3.11
2017-12-15T05:27:14.295Z,3.16
2017-12-15T05:29:41.888Z,3.14
2017-12-15T05:32:09.465Z,3.17
2017-12-15T05:34:37.085Z,3.23
2017-12-15T05:37:04.672Z,3.23
2017-12-15T05:39:32.248Z,3.26
2017-12-15T05:41:59.858Z,3.37
2017-12-15T05:44:27.465Z,3.31
2017-12-15T05:46:56.122Z,3.39
2017-12-15T05:49:24.030Z,3.38
2017-12-15T05:54:22.679Z,3.35
2017-12-15T05:56:50.267Z,3.31
2017-12-15T05:59:17.912Z,3.32
2017-12-15T06:01:45.510Z,3.34
2017-12-15T06:04:13.351Z,3.41
2017-12-15T06:06:40.948Z,3.38
2017-12-15T06:09:08.572Z,3.37
2017-12-15T06:11:36.222Z,3.39
2017-12-15T06:14:03.840Z,3.46
2017-12-15T06:16:31.743Z,3.40
2017-12-15T06:18:59.668Z,3.41
2017-12-15T06:21:27.248Z,3.51
2017-12-15T06:23:55.200Z,3.44
2017-12-15T06:26:22.801Z,3.47
2017-12-15T06:28:50.368Z,3.38
2017-12-15T06:31:19.156Z,3.32
2017-12-15T06:33:47.091Z,3.39
2017-12-15T06:36:14.727Z,3.37
2017-12-15T06:38:42.376Z,3.37
2017-12-15T06:41:09.941Z,3.41
2017-12-15T06:43:37.945Z,3.42
2017-12-15T06:46:05.592Z,3.42
2017-12-15T06:48:33.266Z,3.44
2017-12-15T06:51:00.844Z,3.41
2017-12-15T06:53:28.422Z,3.33
2017-12-15T06:55:56.361Z,3.26
2017-12-15T06:58:23.936Z,3.29
2017-12-15T07:00:51.557Z,3.25
2017-12-15T07:03:19.155Z,3.28
2017-12-15T07:05:46.732Z,3.27
2017-12-15T07:08:14.342Z,3.27
2017-12-15T07:10:41.918Z,3.23
2017-12-15T07:13:09.576Z,3.27
2017-12-15T07:15:37.149Z,3.29
2017-12-15T07:18:04.736Z,3.31
2017-12-15T07:20:32.355Z,3.24
2017-12-15T07:23:00.274Z,3.34
2017-12-15T07:25:27.892Z,3.36
2017-12-15T07:27:55.777Z,3.35
2017-12-15T07:30:23.352Z,3.31
2017-12-15T07:32:51.054Z,3.29
2017-12-15T07:35:18.657Z,3.26
2017-12-15T07:37:46.296Z,3.28
2017-12-15T07:40:13.869Z,3.27
2017-12-15T07:42:41.455Z,3.29
2017-12-15T07:45:09.313Z,3.29
2017-12-15T07:47:36.891Z,3.30
2017-12-15T07:50:04.505Z,3.32
2017-12-15T07:52:32.113Z,3.32
2017-12-15T07:54:59.704Z,3.36
2017-12-15T07:57:27.306Z,3.38
2017-12-15T07:59:54.963Z,3.40
2017-12-15T08:02:22.670Z,3.43
2017-12-15T08:04:50.252Z,3.48
2017-12-15T08:07:18.107Z,3.51
2017-12-15T08:09:45.707Z,3.53
2017-12-15T08:12:13.610Z,3.56
2017-12-15T08:14:41.233Z,3.59
2017-12-15T08:17:09.153Z,3.60
2017-12-15T08:19:36.753Z,3.54
2017-12-15T08:22:04.381Z,3.60
2017-12-15T08:24:31.973Z,3.64
2017-12-15T08:26:59.583Z,3.68
2017-12-15T08:29:27.163Z,3.74
2017-12-15T08:31:54.753Z,3.69
2017-12-15T08:34:22.368Z,3.73
2017-12-15T08:36:49.944Z,3.79
2017-12-15T08:39:17.577Z,3.81
2017-12-15T08:41:51.344Z,3.75
2017-12-15T08:44:18.999Z,3.82
2017-12-15T08:46:46.910Z,3.81
2017-12-15T08:49:14.536Z,3.86
2017-12-15T08:51:45.442Z,3.91
2017-12-15T08:54:13.025Z,3.92
2017-12-15T08:56:40.649Z,3.79
2017-12-15T08:59:08.228Z,3.65
2017-12-15T09:01:35.805Z,3.64
2017-12-15T09:04:08.996Z,3.71
2017-12-15T09:06:36.623Z,3.79
2017-12-15T09:09:04.298Z,3.73
2017-12-15T09:11:32.277Z,3.70
2017-12-15T09:13:59.847Z,3.73
2017-12-15T09:16:27.452Z,3.73
2017-12-15T09:18:55.052Z,3.68
2017-12-15T09:21:22.924Z,3.65
2017-12-15T09:23:50.500Z,3.51
2017-12-15T09:26:18.076Z,3.58
2017-12-15T09:28:45.684Z,3.54
2017-12-15T09:31:13.281Z,3.66
2017-12-15T09:33:41.246Z,3.59
2017-12-15T09:36:08.821Z,3.52
2017-12-15T09:38:36.408Z,3.52
2017-12-15T09:41:04.022Z,3.48
2017-12-15T09:43:31.601Z,3.58
2017-12-15T09:45:59.607Z,3.56
2017-12-15T09:48:27.199Z,3.58
2017-12-15T09:50:54.792Z,3.60
2017-12-15T09:53:22.405Z,3.61
2017-12-15T09:55:50.305Z,3.60
2017-12-15T09:58:17.964Z,3.54
2017-12-15T10:00:45.856Z,3.44
2017-12-15T10:03:13.462Z,3.56
2017-12-15T10:05:41.068Z,3.50
2017-12-15T10:08:08.656Z,3.59
2017-12-15T10:10:36.297Z,3.49
2017-12-15T10:13:03.935Z,3.47
2017-12-15T10:15:31.816Z,3.54
2017-12-15T10:17:59.683Z,3.51
2017-12-15T10:20:27.277Z,3.50
2017-12-15T10:22:54.896Z,3.45
2017-12-15T10:25:22.552Z,3.54
2017-12-15T10:27:50.136Z,3.63
2017-12-15T10:30:18.113Z,3.64
2017-12-15T10:32:45.708Z,3.74
2017-12-15T10:35:13.332Z,3.67
2017-12-15T10:37:41.193Z,3.75
2017-12-15T10:40:08.789Z,3.79
2017-12-15T10:42:36.402Z,3.78
2017-12-15T10:45:04.024Z,3.85
2017-12-15T10:47:31.664Z,3.76
2017-12-15T10:49:59.276Z,3.86
2017-12-15T10:52:26.892Z,3.76
2017-12-15T10:54:54.832Z,3.70
2017-12-15T10:57:22.460Z,3.68
2017-12-15T10:59:50.124Z,3.62
2017-12-15T11:02:17.724Z,3.65
2017-12-15T11:04:45.405Z,3.60
2017-12-15T11:07:13.039Z,3.69
2017-12-15T11:09:40.628Z,3.82
2017-12-15T11:12:08.685Z,3.92
2017-12-15T11:14:36.298Z,3.99
2017-12-15T11:17:03.881Z,3.85
2017-12-15T11:19:31.495Z,3.91
2017-12-15T11:21:59.089Z,3.89
2017-12-15T11:24:26.708Z,3.88
2017-12-15T11:26:54.302Z,3.66
2017-12-15T11:29:21.911Z,3.61
2017-12-15T11:31:49.555Z,3.63
2017-12-15T11:34:17.152Z,3.68
2017-12-15T11:36:44.806Z,3.59
2017-12-15T11:39:12.390Z,3.70
2017-12-15T11:41:39.985Z,3.77
2017-12-15T11:44:07.592Z,3.68
2017-12-15T11:46:35.169Z,3.65
2017-12-15T11:49:02.792Z,3.65
2017-12-15T11:51:30.372Z,3.42
2017-12-15T11:53:57.949Z,3.48
2017-12-15T11:56:25.589Z,3.41
2017-12-15T11:58:53.188Z,3.26
2017-12-15T12:01:21.147Z,3.33
2017-12-15T12:03:49.100Z,3.25
2017-12-15T12:06:16.983Z,3.36
2017-12-15T12:08:44.580Z,3.23
2017-12-15T12:11:12.215Z,3.11
2017-12-15T12:13:39.881Z,3.09
2017-12-15T12:16:07.454Z,3.01
2017-12-15T12:18:35.378Z,2.99
2017-12-15T12:23:36.690Z,3.00
2017-12-15T12:26:04.322Z,2.87
2017-12-15T12:28:32.186Z,2.99
2017-12-15T12:30:59.764Z,2.98
2017-12-15T12:33:27.388Z,2.97
2017-12-15T12:35:55.073Z,3.02
2017-12-15T12:38:22.699Z,2.81
2017-12-15T12:40:50.293Z,2.72
2017-12-15T12:43:18.786Z,2.67
2017-12-15T12:45:46.401Z,2.67
2017-12-15T12:48:14.303Z,2.76
2017-12-15T12:50:42.272Z,2.74
2017-12-15T12:53:09.853Z,2.71
2017-12-15T12:55:37.449Z,2.74
2017-12-15T12:58:05.073Z,2.87
2017-12-15T13:00:32.636Z,2.83
2017-12-15T13:03:00.252Z,2.92
2017-12-15T13:05:27.820Z,2.86
2017-12-15T13:07:55.392Z,2.95
2017-12-15T13:10:22.996Z,2.95
2017-12-15T13:12:50.584Z,3.04
2017-12-15T13:15:18.325Z,3.08
2017-12-15T13:17:46.069Z,3.08
2017-12-15T13:20:13.656Z,3.17
2017-12-15T13:22:41.267Z,3.22
2017-12-15T13:25:08.889Z,3.27
2017-12-15T13:27:36.540Z,3.29
2017-12-15T13:30:04.144Z,3.35
2017-12-15T13:32:31.736Z,3.40
2017-12-15T13:34:59.696Z,3.37
2017-12-15T13:37:27.564Z,3.36
2017-12-15T13:39:55.151Z,3.38
2017-12-15T13:42:22.811Z,3.42
2017-12-15T13:44:50.388Z,3.37
2017-12-15T13:47:17.979Z,3.35
2017-12-15T13:49:45.587Z,3.31
2017-12-15T13:52:13.248Z,3.32
2017-12-15T13:54:41.193Z,3.19
2017-12-15T13:57:08.766Z,3.13
2017-12-15T13:59:36.358Z,3.17
2017-12-15T14:02:03.964Z,3.17
2017-12-15T14:04:32.002Z,3.21
2017-12-15T14:07:00.503Z,3.20
2017-12-15T14:09:28.100Z,3.23
2017-12-15T14:11:55.672Z,3.30
2017-12-15T14:14:23.285Z,3.26
2017-12-15T14:16:50.874Z,3.23
2017-12-15T14:19:18.511Z,3.31
2017-12-15T14:21:46.147Z,3.42
2017-12-15T14:24:13.723Z,3.51
2017-12-15T14:26:41.347Z,3.62
2017-12-15T14:29:09.215Z,3.59
2017-12-15T14:31:36.874Z,3.63
2017-12-15T14:34:04.464Z,3.60
2017-12-15T14:36:32.094Z,3.60
2017-12-15T14:38:59.795Z,3.59
2017-12-15T14:41:27.538Z,3.63
2017-12-15T14:43:55.222Z,3.65
2017-12-15T14:46:22.839Z,3.57
2017-12-15T14:48:51.882Z,3.61
2017-12-15T14:51:18.310Z,3.62
2017-12-15T14:53:45.989Z,3.62
2017-12-15T14:56:14.392Z,3.66
2017-12-15T14:58:41.978Z,3.68
2017-12-15T15:01:09.566Z,3.72
2017-12-15T15:03:37.359Z,3.73
2017-12-15T15:06:05.204Z,3.81
2017-12-15T15:08:32.827Z,3.78
2017-12-15T15:11:00.423Z,3.80
2017-12-15T15:13:28.011Z,3.81
2017-12-15T15:15:55.628Z,3.83
2017-12-15T15:18:23.223Z,3.72
2017-12-15T15:20:50.844Z,3.77
2017-12-15T15:23:18.451Z,3.80
2017-12-15T15:25:46.086Z,3.86
2017-12-15T15:28:13.772Z,3.84
2017-12-15T15:30:41.359Z,3.86
2017-12-15T15:33:09.010Z,3.89
2017-12-15T15:35:36.598Z,3.90
2017-12-15T15:38:04.204Z,3.86
2017-12-15T15:40:31.837Z,3.89
2017-12-15T15:42:59.441Z,3.94
2017-12-15T15:45:27.379Z,3.92
2017-12-15T15:47:54.993Z,3.92
2017-12-15T15:50:22.583Z,3.95
2017-12-15T15:52:50.217Z,3.96
2017-12-15T15:55:18.130Z,3.91
2017-12-15T15:57:45.782Z,3.93
2017-12-15T16:00:13.404Z,3.87
2017-12-15T16:02:41.011Z,3.82
2017-12-15T16:05:08.687Z,3.84
2017-12-15T16:07:36.305Z,3.86
2017-12-15T16:10:03.935Z,3.89
2017-12-15T16:12:31.556Z,3.85
2017-12-15T16:14:59.175Z,3.85
2017-12-15T16:17:26.849Z,3.87
2017-12-15T16:19:54.451Z,3.86
2017-12-15T16:22:22.093Z,3.95
2017-12-15T16:24:49.889Z,3.87
2017-12-15T16:27:17.484Z,3.84
2017-12-15T16:29:45.095Z,3.82
2017-12-15T16:32:12.775Z,3.86
2017-12-15T16:34:40.387Z,3.92
2017-12-15T16:37:07.968Z,3.86
2017-12-15T16:39:35.568Z,3.86
2017-12-15T16:42:03.170Z,3.89
2017-12-15T16:44:30.751Z,3.92
2017-12-15T16:46:58.423Z,3.97
2017-12-15T16:49:26.009Z,3.95
2017-12-15T16:51:53.597Z,3.93
2017-12-15T16:54:21.229Z,3.85
2017-12-15T16:56:48.816Z,3.90
2017-12-15T16:59:16.465Z,3.92
2017-12-15T17:01:44.315Z,3.88
2017-12-15T17:04:12.271Z,3.88
2017-12-15T17:06:39.909Z,3.86
2017-12-15T17:09:07.492Z,3.93
2017-12-15T17:11:35.112Z,3.91
2017-12-15T17:14:03.185Z,3.97
2017-12-15T17:16:30.949Z,3.95
2017-12-15T17:18:58.608Z,4.00
2017-12-15T17:21:26.246Z,4.01
2017-12-15T17:23:53.902Z,4.01
2017-12-15T17:26:21.764Z,3.99
2017-12-15T17:28:49.357Z,4.01
2017-12-15T17:31:17.009Z,4.04
2017-12-15T17:33:44.886Z,4.09
2017-12-15T17:36:12.504Z,4.08
2017-12-15T17:38:40.114Z,4.08
2017-12-15T17:41:07.699Z,4.05
2017-12-15T17:43:38.016Z,3.85
2017-12-15T17:46:05.640Z,3.86
2017-12-15T17:48:33.284Z,3.86
2017-12-15T17:51:00.903Z,3.90
2017-12-15T17:53:28.831Z,3.93
2017-12-15T17:55:56.525Z,3.95
2017-12-15T17:58:24.102Z,3.95
2017-12-15T18:00:51.757Z,3.99
2017-12-15T18:03:19.337Z,4.00
2017-12-15T18:05:46.932Z,3.97
2017-12-15T18:08:14.809Z,3.97
2017-12-15T18:10:42.395Z,3.98
2017-12-15T18:13:10.029Z,4.02
2017-12-15T18:15:37.614Z,4.02
2017-12-15T18:18:05.692Z,4.03
2017-12-15T18:20:33.372Z,4.05
2017-12-15T18:23:01.073Z,4.09
2017-12-15T18:25:28.700Z,4.12
2017-12-15T18:27:56.390Z,4.12
2017-12-15T18:30:24.016Z,4.16
2017-12-15T18:32:51.633Z,4.09
2017-12-15T18:35:19.331Z,4.07
2017-12-15T18:37:46.990Z,4.08
2017-12-15T18:40:14.579Z,4.05
2017-12-15T18:42:42.176Z,4.05
2017-12-15T18:45:09.820Z,4.06
2017-12-15T18:47:37.398Z,3.99
2017-12-15T18:50:05.007Z,4.02
2017-12-15T18:52:32.625Z,3.99
2017-12-15T18:55:00.258Z,4.03
2017-12-15T18:57:27.924Z,3.97
2017-12-15T18:59:55.507Z,3.99
2017-12-15T19:02:23.149Z,4.00
2017-12-15T19:04:50.749Z,3.94
2017-12-15T19:07:18.618Z,4.00
2017-12-15T19:09:46.315Z,4.02
2017-12-15T19:12:13.923Z,4.04
2017-12-15T19:14:41.618Z,4.01
2017-12-15T19:17:09.251Z,3.93
2017-12-15T19:19:36.846Z,3.93
2017-12-15T19:22:04.466Z,3.86
2017-12-15T19:24:32.044Z,3.87
2017-12-15T19:26:59.693Z,3.91
2017-12-15T19:29:27.355Z,3.89
2017-12-15T19:31:54.938Z,3.89
2017-12-15T19:34:22.588Z,3.86
2017-12-15T19:36:50.365Z,3.85
2017-12-15T19:39:18.008Z,3.88
2017-12-15T19:41:45.601Z,3.91
2017-12-15T19:44:13.298Z,3.85
2017-12-15T19:46:41.845Z,3.87
2017-12-15T19:49:09.460Z,3.88
2017-12-15T19:51:37.813Z,3.91
2017-12-15T19:54:05.410Z,3.86
2017-12-15T19:56:33.024Z,3.86
2017-12-15T19:59:00.673Z,3.91
2017-12-15T20:01:28.628Z,3.94
2017-12-15T20:03:56.326Z,3.97
2017-12-15T20:06:23.968Z,3.99
2017-12-15T20:08:51.563Z,4.02
2017-12-15T20:11:19.195Z,4.04
2017-12-15T20:13:46.857Z,4.06
2017-12-15T20:16:14.499Z,4.05
2017-12-15T20:18:42.384Z,4.07
2017-12-15T20:21:09.975Z,4.09
2017-12-15T20:23:37.587Z,4.06
2017-12-15T20:26:05.223Z,4.06
2017-12-15T20:28:33.138Z,4.08
2017-12-15T20:31:00.752Z,4.09
2017-12-15T20:33:28.335Z,4.07
2017-12-15T20:35:55.972Z,4.05
2017-12-15T20:38:23.787Z,4.08
2017-12-15T20:40:51.424Z,4.07
2017-12-15T20:43:19.041Z,4.10
2017-12-15T20:45:46.629Z,4.11
2017-12-15T20:48:14.280Z,4.10
2017-12-15T20:50:41.887Z,4.11
2017-12-15T20:53:09.515Z,4.05
2017-12-15T20:55:37.163Z,3.97
2017-12-15T20:58:04.775Z,3.95
2017-12-15T21:00:32.447Z,3.95
2017-12-15T21:03:00.048Z,3.92
2017-12-15T21:05:27.709Z,3.93
2017-12-15T21:07:55.370Z,3.95
2017-12-15T21:10:22.965Z,3.97
2017-12-15T21:12:50.675Z,4.03
2017-12-15T21:15:18.317Z,4.01
2017-12-15T21:17:45.918Z,4.02
2017-12-15T21:20:13.574Z,4.03
2017-12-15T21:22:41.175Z,4.06
2017-12-15T21:25:08.809Z,4.05
2017-12-15T21:27:36.749Z,4.06
2017-12-15T21:30:04.726Z,4.05
2017-12-15T21:32:32.344Z,4.08
2017-12-15T21:34:59.936Z,4.09
2017-12-15T21:37:27.591Z,4.09
2017-12-15T21:39:55.197Z,4.10
2017-12-15T21:42:22.782Z,4.11
2017-12-15T21:44:50.418Z,4.04
2017-12-15T21:47:17.992Z,3.98
2017-12-15T21:49:45.840Z,4.00
2017-12-15T21:52:13.499Z,3.98
2017-12-15T21:54:41.320Z,3.99
2017-12-15T21:57:08.940Z,3.97
2017-12-15T21:59:36.525Z,4.00
2017-12-15T22:02:04.114Z,4.02
2017-12-15T22:04:31.724Z,4.02
2017-12-15T22:06:59.392Z,3.95
2017-12-15T22:09:27.334Z,3.95
2017-12-15T22:11:54.957Z,3.90
2017-12-15T22:14:22.572Z,3.97
2017-12-15T22:16:50.223Z,3.98
2017-12-15T22:19:17.825Z,4.00
2017-12-15T22:21:45.445Z,4.00
2017-12-15T22:24:13.676Z,4.02
2017-12-15T22:26:41.283Z,4.02
2017-12-15T22:29:08.928Z,4.05
2017-12-15T22:31:36.815Z,4.08
2017-12-15T22:34:04.487Z,3.86
2017-12-15T22:36:32.101Z,3.94
2017-12-15T22:38:59.672Z,3.94
2017-12-15T22:41:27.272Z,3.91
2017-12-15T22:43:55.240Z,3.91
2017-12-15T22:46:22.864Z,3.93
2017-12-15T22:48:50.752Z,3.94
2017-12-15T22:51:18.369Z,3.88
2017-12-15T22:53:46.284Z,3.91
2017-12-15T22:56:13.880Z,3.93
2017-12-15T22:58:41.500Z,3.98
2017-12-15T23:01:09.121Z,3.98
2017-12-15T23:03:36.948Z,3.88
2017-12-15T23:06:04.573Z,3.85
2017-12-15T23:08:32.192Z,3.89
2017-12-15T23:10:59.808Z,3.89
2017-12-15T23:13:27.376Z,3.91
2017-12-15T23:15:54.988Z,3.95
2017-12-15T23:18:22.606Z,3.97
2017-12-15T23:20:50.183Z,3.96
2017-12-15T23:23:17.817Z,3.93
2017-12-15T23:25:45.402Z,3.88
2017-12-15T23:28:13.259Z,3.84
2017-12-15T23:30:41.128Z,3.87
2017-12-15T23:33:09.004Z,3.76
2017-12-15T23:35:36.636Z,3.78
2017-12-15T23:38:04.218Z,3.86
2017-12-15T23:40:31.800Z,3.72
2017-12-15T23:42:59.418Z,3.77
2017-12-15T23:45:27.033Z,3.85
2017-12-15T23:47:54.650Z,3.81
2017-12-15T23:50:22.244Z,3.81
2017-12-15T23:52:49.847Z,3.80
2017-12-15T23:55:29.636Z,3.80
2017-12-15T23:57:57.234Z,3.66
